sensor_id;sensor_type;location;lat;lon;timestamp;pressure;altitude;pressure_sealevel;temperature;humidity
50103;BME280;35993;52.604;10.078;2023-05-21T00:00:43;101546.16;;;14.93;81.22
50103;BME280;35993;52.604;10.078;2023-05-21T00:03:09;101541.91;;;14.79;81.42
50103;BME280;35993;52.604;10.078;2023-05-21T00:05:42;101536.66;;;14.77;81.47
50103;BME280;35993;52.604;10.078;2023-05-21T00:08:09;101533.94;;;14.77;81.80
50103;BME280;35993;52.604;10.078;2023-05-21T00:10:35;101538.38;;;14.71;82.46
50103;BME280;35993;52.604;10.078;2023-05-21T00:13:01;101536.03;;;14.75;82.48
50103;BME280;35993;52.604;10.078;2023-05-21T00:15:26;101528.31;;;14.72;82.18
50103;BME280;35993;52.604;10.078;2023-05-21T00:17:52;101524.13;;;14.69;82.12
50103;BME280;35993;52.604;10.078;2023-05-21T00:20:18;101521.81;;;14.66;82.09
50103;BME280;35993;52.604;10.078;2023-05-21T00:22:43;101514.69;;;14.65;82.64
50103;BME280;35993;52.604;10.078;2023-05-21T00:25:10;101512.09;;;14.70;82.26
50103;BME280;35993;52.604;10.078;2023-05-21T00:27:35;101521.63;;;14.61;82.40
50103;BME280;35993;52.604;10.078;2023-05-21T00:30:02;101512.63;;;14.54;82.73
50103;BME280;35993;52.604;10.078;2023-05-21T00:32:28;101515.19;;;14.55;82.65
50103;BME280;35993;52.604;10.078;2023-05-21T00:34:54;101508.25;;;14.53;82.43
50103;BME280;35993;52.604;10.078;2023-05-21T00:37:20;101509.72;;;14.55;82.45
50103;BME280;35993;52.604;10.078;2023-05-21T00:39:46;101511.66;;;14.48;82.79
50103;BME280;35993;52.604;10.078;2023-05-21T00:42:12;101500.56;;;14.43;82.86
50103;BME280;35993;52.604;10.078;2023-05-21T00:44:43;101502.25;;;14.44;83.27
50103;BME280;35993;52.604;10.078;2023-05-21T00:47:11;101499.50;;;14.44;83.12
50103;BME280;35993;52.604;10.078;2023-05-21T00:49:38;101499.91;;;14.48;83.04
50103;BME280;35993;52.604;10.078;2023-05-21T00:52:04;101499.66;;;14.49;82.50
50103;BME280;35993;52.604;10.078;2023-05-21T00:54:31;101496.53;;;14.46;82.95
50103;BME280;35993;52.604;10.078;2023-05-21T00:56:57;101493.00;;;14.45;82.88
50103;BME280;35993;52.604;10.078;2023-05-21T00:59:23;101494.31;;;14.36;83.13
50103;BME280;35993;52.604;10.078;2023-05-21T01:01:49;101486.34;;;14.34;83.14
50103;BME280;35993;52.604;10.078;2023-05-21T01:04:23;101487.63;;;14.32;83.20
50103;BME280;35993;52.604;10.078;2023-05-21T01:06:49;101487.41;;;14.33;83.26
50103;BME280;35993;52.604;10.078;2023-05-21T01:09:15;101485.13;;;14.30;83.19
50103;BME280;35993;52.604;10.078;2023-05-21T01:11:49;101488.97;;;14.22;83.17
50103;BME280;35993;52.604;10.078;2023-05-21T01:14:17;101483.91;;;14.26;82.69
50103;BME280;35993;52.604;10.078;2023-05-21T01:16:45;101483.69;;;14.28;83.10
50103;BME280;35993;52.604;10.078;2023-05-21T01:19:15;101483.50;;;14.22;82.92
50103;BME280;35993;52.604;10.078;2023-05-21T01:21:45;101477.41;;;14.20;83.08
50103;BME280;35993;52.604;10.078;2023-05-21T01:24:12;101476.13;;;14.23;83.00
50103;BME280;35993;52.604;10.078;2023-05-21T01:26:37;101481.00;;;14.21;82.84
50103;BME280;35993;52.604;10.078;2023-05-21T01:29:04;101483.75;;;14.21;82.88
50103;BME280;35993;52.604;10.078;2023-05-21T01:31:47;101481.66;;;14.16;82.74
50103;BME280;35993;52.604;10.078;2023-05-21T01:34:20;101473.75;;;14.08;83.46
50103;BME280;35993;52.604;10.078;2023-05-21T01:37:09;101477.94;;;14.11;83.51
50103;BME280;35993;52.604;10.078;2023-05-21T01:39:38;101475.22;;;14.11;83.46
50103;BME280;35993;52.604;10.078;2023-05-21T01:42:09;101473.38;;;14.04;83.43
50103;BME280;35993;52.604;10.078;2023-05-21T01:44:36;101477.31;;;14.08;83.35
50103;BME280;35993;52.604;10.078;2023-05-21T01:47:03;101466.00;;;14.05;83.42
50103;BME280;35993;52.604;10.078;2023-05-21T01:49:30;101469.00;;;13.97;83.45
50103;BME280;35993;52.604;10.078;2023-05-21T01:51:56;101466.06;;;13.98;83.65
50103;BME280;35993;52.604;10.078;2023-05-21T01:54:21;101465.81;;;14.00;83.69
50103;BME280;35993;52.604;10.078;2023-05-21T01:56:48;101467.28;;;14.02;83.52
50103;BME280;35993;52.604;10.078;2023-05-21T01:59:14;101461.22;;;14.00;83.37
50103;BME280;35993;52.604;10.078;2023-05-21T02:01:42;101463.09;;;14.00;83.69
50103;BME280;35993;52.604;10.078;2023-05-21T02:04:07;101465.41;;;14.03;83.46
50103;BME280;35993;52.604;10.078;2023-05-21T02:06:33;101463.09;;;14.00;83.43
50103;BME280;35993;52.604;10.078;2023-05-21T02:09:00;101458.28;;;13.95;83.64
50103;BME280;35993;52.604;10.078;2023-05-21T02:11:26;101458.53;;;13.93;83.74
50103;BME280;35993;52.604;10.078;2023-05-21T02:13:52;101463.97;;;13.93;83.35
50103;BME280;35993;52.604;10.078;2023-05-21T02:16:18;101458.75;;;13.92;83.46
50103;BME280;35993;52.604;10.078;2023-05-21T02:18:44;101460.03;;;13.89;83.75
50103;BME280;35993;52.604;10.078;2023-05-21T02:21:11;101452.50;;;13.85;84.09
50103;BME280;35993;52.604;10.078;2023-05-21T02:23:36;101460.84;;;13.90;83.97
50103;BME280;35993;52.604;10.078;2023-05-21T02:26:03;101458.97;;;13.90;83.77
50103;BME280;35993;52.604;10.078;2023-05-21T02:28:28;101448.94;;;13.84;84.16
50103;BME280;35993;52.604;10.078;2023-05-21T02:30:55;101445.38;;;13.84;84.19
50103;BME280;35993;52.604;10.078;2023-05-21T02:33:20;101451.03;;;13.82;84.00
50103;BME280;35993;52.604;10.078;2023-05-21T02:35:49;101450.03;;;13.76;84.08
50103;BME280;35993;52.604;10.078;2023-05-21T02:38:14;101446.47;;;13.76;84.48
50103;BME280;35993;52.604;10.078;2023-05-21T02:40:44;101453.00;;;13.75;84.43
50103;BME280;35993;52.604;10.078;2023-05-21T02:43:10;101462.41;;;13.79;84.69
50103;BME280;35993;52.604;10.078;2023-05-21T02:45:36;101457.41;;;13.76;84.43
50103;BME280;35993;52.604;10.078;2023-05-21T02:48:02;101451.97;;;13.69;84.92
50103;BME280;35993;52.604;10.078;2023-05-21T02:50:30;101452.59;;;13.71;85.20
50103;BME280;35993;52.604;10.078;2023-05-21T02:52:57;101449.69;;;13.66;85.18
50103;BME280;35993;52.604;10.078;2023-05-21T02:55:24;101460.59;;;13.66;85.28
50103;BME280;35993;52.604;10.078;2023-05-21T02:57:50;101449.47;;;13.68;85.46
50103;BME280;35993;52.604;10.078;2023-05-21T03:00:16;101443.38;;;13.66;85.31
50103;BME280;35993;52.604;10.078;2023-05-21T03:02:42;101445.72;;;13.62;85.79
50103;BME280;35993;52.604;10.078;2023-05-21T03:05:08;101445.72;;;13.62;86.01
50103;BME280;35993;52.604;10.078;2023-05-21T03:07:33;101438.59;;;13.61;85.69
50103;BME280;35993;52.604;10.078;2023-05-21T03:09:59;101440.28;;;13.62;85.49
50103;BME280;35993;52.604;10.078;2023-05-21T03:12:25;101440.69;;;13.59;86.11
50103;BME280;35993;52.604;10.078;2023-05-21T03:14:51;101429.56;;;13.60;86.22
50103;BME280;35993;52.604;10.078;2023-05-21T03:17:18;101438.59;;;13.61;85.97
50103;BME280;35993;52.604;10.078;2023-05-21T03:19:44;101431.47;;;13.60;86.26
50103;BME280;35993;52.604;10.078;2023-05-21T03:22:10;101426.69;;;13.49;86.23
50103;BME280;35993;52.604;10.078;2023-05-21T03:24:37;101436.75;;;13.55;86.48
50103;BME280;35993;52.604;10.078;2023-05-21T03:27:04;101428.78;;;13.53;86.77
50103;BME280;35993;52.604;10.078;2023-05-21T03:29:31;101424.16;;;13.54;86.58
50103;BME280;35993;52.604;10.078;2023-05-21T03:31:57;101424.16;;;13.54;86.98
50103;BME280;35993;52.604;10.078;2023-05-21T03:34:23;101430.66;;;13.53;86.64
50103;BME280;35993;52.604;10.078;2023-05-21T03:36:49;101412.47;;;13.47;86.76
50103;BME280;35993;52.604;10.078;2023-05-21T03:39:16;101424.19;;;13.47;86.85
50103;BME280;35993;52.604;10.078;2023-05-21T03:41:42;101421.69;;;13.46;86.89
50103;BME280;35993;52.604;10.078;2023-05-21T03:44:13;101423.16;;;13.48;87.21
50103;BME280;35993;52.604;10.078;2023-05-21T03:46:50;101420.19;;;13.50;87.10
50103;BME280;35993;52.604;10.078;2023-05-21T03:49:20;101422.28;;;13.54;86.63
50103;BME280;35993;52.604;10.078;2023-05-21T03:51:48;101425.44;;;13.51;87.23
50103;BME280;35993;52.604;10.078;2023-05-21T03:54:16;101423.94;;;13.55;87.50
50103;BME280;35993;52.604;10.078;2023-05-21T03:56:41;101415.97;;;13.54;87.22
50103;BME280;35993;52.604;10.078;2023-05-21T03:59:07;101420.38;;;13.55;86.89
50103;BME280;35993;52.604;10.078;2023-05-21T04:01:34;101418.66;;;13.60;87.29
50103;BME280;35993;52.604;10.078;2023-05-21T04:04:01;101419.75;;;13.53;87.18
50103;BME280;35993;52.604;10.078;2023-05-21T04:06:27;101416.81;;;13.54;87.31
50103;BME280;35993;52.604;10.078;2023-05-21T04:08:52;101413.25;;;13.54;87.57
50103;BME280;35993;52.604;10.078;2023-05-21T04:11:18;101427.06;;;13.59;87.47
50103;BME280;35993;52.604;10.078;2023-05-21T04:13:44;101423.06;;;13.62;87.61
50103;BME280;35993;52.604;10.078;2023-05-21T04:16:10;101423.03;;;13.68;87.64
50103;BME280;35993;52.604;10.078;2023-05-21T04:18:39;101417.56;;;13.68;87.04
50103;BME280;35993;52.604;10.078;2023-05-21T04:21:06;101429.47;;;13.74;87.17
50103;BME280;35993;52.604;10.078;2023-05-21T04:23:32;101428.03;;;13.71;86.81
50103;BME280;35993;52.604;10.078;2023-05-21T04:26:00;101428.44;;;13.75;87.14
50103;BME280;35993;52.604;10.078;2023-05-21T04:28:27;101427.97;;;13.78;87.38
50103;BME280;35993;52.604;10.078;2023-05-21T04:30:54;101424.81;;;13.81;87.18
50103;BME280;35993;52.604;10.078;2023-05-21T04:33:21;101422.91;;;13.82;87.07
50103;BME280;35993;52.604;10.078;2023-05-21T04:35:50;101430.66;;;13.85;87.29
50103;BME280;35993;52.604;10.078;2023-05-21T04:38:17;101437.56;;;13.87;87.56
50103;BME280;35993;52.604;10.078;2023-05-21T04:40:48;101429.38;;;13.87;87.62
50103;BME280;35993;52.604;10.078;2023-05-21T04:43:18;101427.03;;;13.91;87.55
50103;BME280;35993;52.604;10.078;2023-05-21T04:45:53;101421.59;;;13.91;87.27
50103;BME280;35993;52.604;10.078;2023-05-21T04:48:23;101425.94;;;13.99;87.10
50103;BME280;35993;52.604;10.078;2023-05-21T04:50:49;101426.09;;;14.04;87.41
50103;BME280;35993;52.604;10.078;2023-05-21T04:53:16;101434.03;;;14.12;87.47
50103;BME280;35993;52.604;10.078;2023-05-21T04:55:41;101431.84;;;14.21;86.72
50103;BME280;35993;52.604;10.078;2023-05-21T04:58:07;101432.84;;;14.26;86.51
50103;BME280;35993;52.604;10.078;2023-05-21T05:00:39;101427.09;;;14.35;86.59
50103;BME280;35993;52.604;10.078;2023-05-21T05:03:06;101430.81;;;14.40;86.79
50103;BME280;35993;52.604;10.078;2023-05-21T05:05:32;101420.88;;;14.46;86.46
50103;BME280;35993;52.604;10.078;2023-05-21T05:07:58;101428.47;;;14.44;85.91
50103;BME280;35993;52.604;10.078;2023-05-21T05:10:23;101419.97;;;14.52;86.25
50103;BME280;35993;52.604;10.078;2023-05-21T05:12:51;101423.25;;;14.61;85.81
50103;BME280;35993;52.604;10.078;2023-05-21T05:15:17;101426.72;;;14.75;85.65
50103;BME280;35993;52.604;10.078;2023-05-21T05:17:42;101427.91;;;14.79;85.48
50103;BME280;35993;52.604;10.078;2023-05-21T05:20:09;101434.84;;;14.82;86.08
50103;BME280;35993;52.604;10.078;2023-05-21T05:22:36;101435.84;;;14.87;85.98
50103;BME280;35993;52.604;10.078;2023-05-21T05:25:02;101429.66;;;14.92;85.84
50103;BME280;35993;52.604;10.078;2023-05-21T05:27:27;101432.69;;;15.02;85.71
50103;BME280;35993;52.604;10.078;2023-05-21T05:29:54;101429.03;;;15.08;84.66
50103;BME280;35993;52.604;10.078;2023-05-21T05:32:19;101431.34;;;15.12;84.66
50103;BME280;35993;52.604;10.078;2023-05-21T05:34:45;101426.38;;;15.20;84.61
50103;BME280;35993;52.604;10.078;2023-05-21T05:37:11;101439.69;;;15.17;85.07
50103;BME280;35993;52.604;10.078;2023-05-21T05:39:36;101421.28;;;15.24;84.75
50103;BME280;35993;52.604;10.078;2023-05-21T05:42:02;101427.25;;;15.33;84.61
50103;BME280;35993;52.604;10.078;2023-05-21T05:44:28;101437.81;;;15.29;84.99
50103;BME280;35993;52.604;10.078;2023-05-21T05:46:54;101421.97;;;15.19;85.27
50103;BME280;35993;52.604;10.078;2023-05-21T05:49:20;101421.88;;;15.26;85.44
50103;BME280;35993;52.604;10.078;2023-05-21T05:51:46;101421.06;;;15.26;85.92
50103;BME280;35993;52.604;10.078;2023-05-21T05:54:11;101420.22;;;15.25;85.82
50103;BME280;35993;52.604;10.078;2023-05-21T05:56:37;101429.06;;;15.39;85.99
50103;BME280;35993;52.604;10.078;2023-05-21T05:59:03;101423.06;;;15.49;85.98
50103;BME280;35993;52.604;10.078;2023-05-21T06:01:32;101426.66;;;15.61;85.51
50103;BME280;35993;52.604;10.078;2023-05-21T06:03:58;101421.81;;;15.75;85.47
50103;BME280;35993;52.604;10.078;2023-05-21T06:06:24;101434.91;;;15.73;84.96
50103;BME280;35993;52.604;10.078;2023-05-21T06:08:50;101434.44;;;15.76;85.44
50103;BME280;35993;52.604;10.078;2023-05-21T06:11:17;101432.22;;;15.85;85.25
50103;BME280;35993;52.604;10.078;2023-05-21T06:13:44;101432.13;;;15.92;85.52
50103;BME280;35993;52.604;10.078;2023-05-21T06:16:09;101430.34;;;15.97;85.36
50103;BME280;35993;52.604;10.078;2023-05-21T06:18:36;101423.78;;;15.98;85.03
50103;BME280;35993;52.604;10.078;2023-05-21T06:21:02;101431.53;;;16.01;85.16
50103;BME280;35993;52.604;10.078;2023-05-21T06:23:28;101426.31;;;16.00;85.12
50103;BME280;35993;52.604;10.078;2023-05-21T06:25:56;101423.78;;;15.98;84.81
50103;BME280;35993;52.604;10.078;2023-05-21T06:28:22;101430.69;;;16.01;85.17
50103;BME280;35993;52.604;10.078;2023-05-21T06:30:48;101435.59;;;16.11;85.56
50103;BME280;35993;52.604;10.078;2023-05-21T06:33:14;101427.88;;;16.08;84.89
50103;BME280;35993;52.604;10.078;2023-05-21T06:35:40;101436.78;;;16.15;84.79
50103;BME280;35993;52.604;10.078;2023-05-21T06:38:08;101431.31;;;16.15;85.48
50103;BME280;35993;52.604;10.078;2023-05-21T06:40:34;101430.38;;;16.21;85.80
50103;BME280;35993;52.604;10.078;2023-05-21T06:43:00;101426.31;;;16.24;85.76
50103;BME280;35993;52.604;10.078;2023-05-21T06:45:37;101424.31;;;16.31;86.29
50103;BME280;35993;52.604;10.078;2023-05-21T06:48:15;101421.81;;;16.41;86.24
50103;BME280;35993;52.604;10.078;2023-05-21T06:50:44;101423.59;;;16.47;85.78
50103;BME280;35993;52.604;10.078;2023-05-21T06:53:10;101415.00;;;16.44;85.69
50103;BME280;35993;52.604;10.078;2023-05-21T06:55:38;101414.97;;;16.55;85.74
50103;BME280;35993;52.604;10.078;2023-05-21T06:58:16;101409.97;;;16.64;85.79
50103;BME280;35993;52.604;10.078;2023-05-21T07:00:42;101415.81;;;16.68;85.31
50103;BME280;35993;52.604;10.078;2023-05-21T07:03:09;101418.56;;;16.68;85.65
50103;BME280;35993;52.604;10.078;2023-05-21T07:05:35;101405.78;;;16.74;85.41
50103;BME280;35993;52.604;10.078;2023-05-21T07:08:00;101407.56;;;16.80;85.31
50103;BME280;35993;52.604;10.078;2023-05-21T07:10:26;101406.84;;;16.84;85.33
50103;BME280;35993;52.604;10.078;2023-05-21T07:12:52;101409.22;;;16.93;85.04
50103;BME280;35993;52.604;10.078;2023-05-21T07:15:19;101408.50;;;16.97;85.29
50103;BME280;35993;52.604;10.078;2023-05-21T07:17:44;101415.41;;;17.00;84.88
50103;BME280;35993;52.604;10.078;2023-05-21T07:20:10;101413.94;;;17.09;84.98
50103;BME280;35993;52.604;10.078;2023-05-21T07:22:40;101412.34;;;17.25;84.58
50103;BME280;35993;52.604;10.078;2023-05-21T07:25:07;101419.59;;;17.31;84.41
50103;BME280;35993;52.604;10.078;2023-05-21T07:27:33;101417.63;;;17.44;84.37
50103;BME280;35993;52.604;10.078;2023-05-21T07:29:59;101420.91;;;17.58;83.90
50103;BME280;35993;52.604;10.078;2023-05-21T07:32:25;101414.81;;;17.56;83.69
50103;BME280;35993;52.604;10.078;2023-05-21T07:34:54;101419.66;;;17.65;83.48
50103;BME280;35993;52.604;10.078;2023-05-21T07:37:19;101414.88;;;17.73;83.47
50103;BME280;35993;52.604;10.078;2023-05-21T07:39:45;101419.38;;;17.79;83.09
50103;BME280;35993;52.604;10.078;2023-05-21T07:42:11;101412.38;;;17.88;82.68
50103;BME280;35993;52.604;10.078;2023-05-21T07:44:37;101420.88;;;17.87;82.50
50103;BME280;35993;52.604;10.078;2023-05-21T07:47:03;101406.81;;;17.83;82.42
50103;BME280;35993;52.604;10.078;2023-05-21T07:49:29;101408.66;;;17.94;82.79
50103;BME280;35993;52.604;10.078;2023-05-21T07:51:55;101409.75;;;17.93;82.56
50103;BME280;35993;52.604;10.078;2023-05-21T07:54:20;101403.63;;;17.91;82.07
50103;BME280;35993;52.604;10.078;2023-05-21T07:56:47;101406.63;;;17.90;81.35
50103;BME280;35993;52.604;10.078;2023-05-21T08:03:42;101408.75;;;17.99;81.49
50103;BME280;35993;52.604;10.078;2023-05-21T08:06:07;101409.66;;;18.05;81.35
50103;BME280;35993;52.604;10.078;2023-05-21T08:08:33;101402.34;;;18.11;81.47
50103;BME280;35993;52.604;10.078;2023-05-21T08:10:59;101407.59;;;18.12;81.06
50103;BME280;35993;52.604;10.078;2023-05-21T08:13:26;101402.41;;;18.16;80.79
50103;BME280;35993;52.604;10.078;2023-05-21T08:15:52;101412.16;;;18.24;80.70
50103;BME280;35993;52.604;10.078;2023-05-21T08:18:18;101408.63;;;18.28;80.78
50103;BME280;35993;52.604;10.078;2023-05-21T08:20:45;101413.38;;;18.33;80.46
50103;BME280;35993;52.604;10.078;2023-05-21T08:23:11;101412.38;;;18.39;80.27
50103;BME280;35993;52.604;10.078;2023-05-21T08:25:44;101412.53;;;18.49;79.74
50103;BME280;35993;52.604;10.078;2023-05-21T08:28:09;101410.41;;;18.57;79.46
50103;BME280;35993;52.604;10.078;2023-05-21T08:30:35;101406.31;;;18.59;79.49
50103;BME280;35993;52.604;10.078;2023-05-21T08:33:01;101402.38;;;18.72;79.11
50103;BME280;35993;52.604;10.078;2023-05-21T08:35:29;101404.22;;;18.89;79.40
50103;BME280;35993;52.604;10.078;2023-05-21T08:38:00;101402.53;;;18.82;78.78
50103;BME280;35993;52.604;10.078;2023-05-21T08:40:37;101403.06;;;18.84;78.12
50103;BME280;35993;52.604;10.078;2023-05-21T08:43:02;101408.31;;;18.86;77.95
50103;BME280;35993;52.604;10.078;2023-05-21T08:45:37;101398.53;;;18.90;78.23
50103;BME280;35993;52.604;10.078;2023-05-21T08:48:07;101401.06;;;18.97;77.99
50103;BME280;35993;52.604;10.078;2023-05-21T08:50:35;101397.41;;;19.13;78.03
50103;BME280;35993;52.604;10.078;2023-05-21T08:53:07;101390.81;;;19.42;76.96
50103;BME280;35993;52.604;10.078;2023-05-21T08:55:32;101383.84;;;19.61;76.66
50103;BME280;35993;52.604;10.078;2023-05-21T08:58:00;101387.78;;;19.71;75.99
50103;BME280;35993;52.604;10.078;2023-05-21T09:00:27;101381.75;;;19.74;75.82
50103;BME280;35993;52.604;10.078;2023-05-21T09:02:53;101388.81;;;19.92;75.12
50103;BME280;35993;52.604;10.078;2023-05-21T09:05:21;101398.56;;;20.05;74.76
50103;BME280;35993;52.604;10.078;2023-05-21T09:08:04;101393.31;;;20.03;74.80
50103;BME280;35993;52.604;10.078;2023-05-21T09:10:48;101389.78;;;20.08;73.95
50103;BME280;35993;52.604;10.078;2023-05-21T09:13:19;101396.41;;;20.12;73.83
50103;BME280;35993;52.604;10.078;2023-05-21T09:15:45;101395.28;;;20.08;74.20
50103;BME280;35993;52.604;10.078;2023-05-21T09:18:13;101394.13;;;20.04;73.71
50103;BME280;35993;52.604;10.078;2023-05-21T09:20:50;101396.13;;;20.13;74.02
50103;BME280;35993;52.604;10.078;2023-05-21T09:23:18;101390.66;;;20.19;74.09
50103;BME280;35993;52.604;10.078;2023-05-21T09:25:46;101402.06;;;20.33;73.69
50103;BME280;35993;52.604;10.078;2023-05-21T09:28:18;101394.09;;;20.36;73.37
50103;BME280;35993;52.604;10.078;2023-05-21T09:30:47;101398.25;;;20.39;73.39
50103;BME280;35993;52.604;10.078;2023-05-21T09:33:24;101394.91;;;20.37;73.43
50103;BME280;35993;52.604;10.078;2023-05-21T09:35:50;101408.22;;;20.45;73.37
50103;BME280;35993;52.604;10.078;2023-05-21T09:38:17;101399.69;;;20.52;73.66
50103;BME280;35993;52.604;10.078;2023-05-21T09:40:43;101401.09;;;20.54;73.21
50103;BME280;35993;52.604;10.078;2023-05-21T09:43:14;101405.84;;;20.64;73.29
50103;BME280;35993;52.604;10.078;2023-05-21T09:45:52;101398.72;;;20.73;73.13
50103;BME280;35993;52.604;10.078;2023-05-21T09:48:42;101396.00;;;20.84;71.93
50103;BME280;35993;52.604;10.078;2023-05-21T09:51:19;101395.72;;;20.85;71.51
50103;BME280;35993;52.604;10.078;2023-05-21T09:53:54;101396.06;;;20.94;71.76
50103;BME280;35993;52.604;10.078;2023-05-21T09:56:28;101390.25;;;20.95;71.14
50103;BME280;35993;52.604;10.078;2023-05-21T09:59:02;101390.00;;;21.07;71.12
50103;BME280;35993;52.604;10.078;2023-05-21T10:01:31;101396.44;;;21.34;70.67
50103;BME280;35993;52.604;10.078;2023-05-21T10:03:59;101403.09;;;21.53;70.06
50103;BME280;35993;52.604;10.078;2023-05-21T10:06:30;101399.25;;;21.65;70.58
50103;BME280;35993;52.604;10.078;2023-05-21T10:09:02;101400.94;;;21.76;69.70
50103;BME280;35993;52.604;10.078;2023-05-21T10:11:31;101395.41;;;21.86;68.99
50103;BME280;35993;52.604;10.078;2023-05-21T10:14:03;101387.97;;;21.82;69.14
50103;BME280;35993;52.604;10.078;2023-05-21T10:16:31;101386.56;;;21.74;68.10
50103;BME280;35993;52.604;10.078;2023-05-21T10:18:57;101382.97;;;21.68;68.61
50103;BME280;35993;52.604;10.078;2023-05-21T10:21:25;101391.81;;;21.65;68.21
50103;BME280;35993;52.604;10.078;2023-05-21T10:23:52;101373.31;;;21.71;67.40
50103;BME280;35993;52.604;10.078;2023-05-21T10:26:20;101381.88;;;21.69;67.51
50103;BME280;35993;52.604;10.078;2023-05-21T10:28:49;101386.81;;;21.62;67.70
50103;BME280;35993;52.604;10.078;2023-05-21T10:31:15;101370.53;;;21.55;67.75
50103;BME280;35993;52.604;10.078;2023-05-21T10:33:42;101373.00;;;21.57;67.72
50103;BME280;35993;52.604;10.078;2023-05-21T10:36:08;101374.66;;;21.53;67.87
50103;BME280;35993;52.604;10.078;2023-05-21T10:38:34;101370.25;;;21.57;67.75
50103;BME280;35993;52.604;10.078;2023-05-21T10:41:02;101375.78;;;21.57;67.40
50103;BME280;35993;52.604;10.078;2023-05-21T10:46:25;101362.22;;;21.40;67.46
50103;BME280;35993;52.604;10.078;2023-05-21T10:51:26;101363.59;;;21.48;67.47
50103;BME280;35993;52.604;10.078;2023-05-21T10:59:48;101364.44;;;21.64;69.33
50103;BME280;35993;52.604;10.078;2023-05-21T11:02:14;101357.28;;;21.73;69.26
50103;BME280;35993;52.604;10.078;2023-05-21T11:04:45;101361.44;;;21.81;69.51
50103;BME280;35993;52.604;10.078;2023-05-21T11:07:14;101358.66;;;21.86;69.34
50103;BME280;35993;52.604;10.078;2023-05-21T11:09:39;101349.50;;;22.01;68.33
50103;BME280;35993;52.604;10.078;2023-05-21T11:12:05;101348.94;;;22.09;67.26
50103;BME280;35993;52.604;10.078;2023-05-21T11:19:40;101343.94;;;22.97;65.81
50103;BME280;35993;52.604;10.078;2023-05-21T11:22:18;101332.53;;;23.04;65.40
50103;BME280;35993;52.604;10.078;2023-05-21T11:24:44;101327.81;;;23.10;64.48
50103;BME280;35993;52.604;10.078;2023-05-21T11:27:10;101326.44;;;23.07;63.95
50103;BME280;35993;52.604;10.078;2023-05-21T11:29:43;101325.06;;;23.10;64.09
50103;BME280;35993;52.604;10.078;2023-05-21T11:32:13;101324.16;;;23.14;63.77
50103;BME280;35993;52.604;10.078;2023-05-21T11:34:44;101325.50;;;23.27;63.27
50103;BME280;35993;52.604;10.078;2023-05-21T11:39:49;101324.31;;;23.38;62.69
50103;BME280;35993;52.604;10.078;2023-05-21T11:44:56;101314.75;;;23.55;62.59
50103;BME280;35993;52.604;10.078;2023-05-21T11:47:23;101312.19;;;23.64;61.94
50103;BME280;35993;52.604;10.078;2023-05-21T11:49:50;101313.34;;;23.58;61.57
50103;BME280;35993;52.604;10.078;2023-05-21T11:52:16;101312.38;;;23.72;62.34
50103;BME280;35993;52.604;10.078;2023-05-21T11:54:43;101310.25;;;23.94;61.96
50103;BME280;35993;52.604;10.078;2023-05-21T11:57:11;101307.00;;;24.16;61.06
50103;BME280;35993;52.604;10.078;2023-05-21T11:59:37;101311.44;;;24.36;60.67
50103;BME280;35993;52.604;10.078;2023-05-21T12:02:03;101306.78;;;24.56;60.67
50103;BME280;35993;52.604;10.078;2023-05-21T12:04:29;101307.59;;;24.80;61.05
50103;BME280;35993;52.604;10.078;2023-05-21T12:06:55;101313.44;;;24.79;61.07
50103;BME280;35993;52.604;10.078;2023-05-21T12:09:23;101310.28;;;24.66;60.65
50103;BME280;35993;52.604;10.078;2023-05-21T12:11:48;101308.94;;;24.59;60.27
50103;BME280;35993;52.604;10.078;2023-05-21T12:14:16;101301.63;;;24.68;59.50
50103;BME280;35993;52.604;10.078;2023-05-21T12:16:42;101296.09;;;24.68;59.59
50103;BME280;35993;52.604;10.078;2023-05-21T12:19:08;101292.50;;;24.67;58.83
50103;BME280;35993;52.604;10.078;2023-05-21T12:21:34;101289.13;;;24.46;59.03
50103;BME280;35993;52.604;10.078;2023-05-21T12:24:01;101294.16;;;24.44;59.50
50103;BME280;35993;52.604;10.078;2023-05-21T12:26:27;101303.97;;;24.36;60.19
50103;BME280;35993;52.604;10.078;2023-05-21T12:28:53;101298.41;;;24.36;60.43
50103;BME280;35993;52.604;10.078;2023-05-21T12:31:19;101297.63;;;24.55;60.02
50103;BME280;35993;52.604;10.078;2023-05-21T12:33:52;101296.72;;;24.84;59.82
50103;BME280;35993;52.604;10.078;2023-05-21T12:36:29;101292.91;;;24.99;59.26
50103;BME280;35993;52.604;10.078;2023-05-21T12:38:56;101292.44;;;25.11;58.17
50103;BME280;35993;52.604;10.078;2023-05-21T12:41:22;101285.91;;;25.21;57.34
50103;BME280;35993;52.604;10.078;2023-05-21T12:43:49;101281.97;;;25.02;57.60
50103;BME280;35993;52.604;10.078;2023-05-21T12:46:15;101286.47;;;25.17;57.94
50103;BME280;35993;52.604;10.078;2023-05-21T12:48:51;101277.25;;;25.41;57.54
50103;BME280;35993;52.604;10.078;2023-05-21T12:51:19;101287.03;;;25.39;57.47
50103;BME280;35993;52.604;10.078;2023-05-21T12:53:45;101284.09;;;25.63;57.26
50103;BME280;35993;52.604;10.078;2023-05-21T12:56:11;101276.69;;;25.72;56.49
50103;BME280;35993;52.604;10.078;2023-05-21T12:58:37;101275.03;;;25.71;56.55
50103;BME280;35993;52.604;10.078;2023-05-21T13:01:06;101274.28;;;25.51;56.89
50103;BME280;35993;52.604;10.078;2023-05-21T13:03:32;101266.66;;;25.57;56.18
50103;BME280;35993;52.604;10.078;2023-05-21T13:05:58;101265.03;;;25.70;55.96
50103;BME280;35993;52.604;10.078;2023-05-21T13:08:25;101271.44;;;25.71;55.54